createdAt,value
2019-03-30T00:00:18.023Z,65.59
2019-03-30T00:02:28.888Z,66.34
2019-03-30T00:04:39.838Z,66.87
2019-03-30T00:06:50.784Z,67.01
2019-03-30T00:09:01.966Z,67.18
2019-03-30T00:11:12.893Z,66.97
2019-03-30T00:13:23.879Z,67.03
2019-03-30T00:15:34.712Z,67.12
2019-03-30T00:17:45.552Z,67.18
2019-03-30T00:19:56.407Z,67.26
2019-03-30T00:22:07.348Z,67.45
2019-03-30T00:24:18.226Z,67.41
2019-03-30T00:26:29.068Z,67.46
2019-03-30T00:28:39.898Z,67.85
2019-03-30T00:30:50.797Z,67.82
2019-03-30T00:33:01.698Z,67.78
2019-03-30T00:35:12.560Z,68.10
2019-03-30T00:37:23.391Z,68.19
2019-03-30T00:39:34.257Z,68.14
2019-03-30T00:41:45.095Z,68.24
2019-03-30T00:43:55.938Z,68.74
2019-03-30T00:46:06.789Z,68.47
2019-03-30T00:48:17.637Z,68.76
2019-03-30T00:50:28.607Z,68.81
2019-03-30T00:52:39.446Z,68.72
2019-03-30T00:54:50.295Z,68.71
2019-03-30T00:57:01.274Z,68.68
2019-03-30T00:59:12.222Z,68.96
2019-03-30T01:01:23.117Z,69.23
2019-03-30T01:03:33.944Z,69.27
2019-03-30T01:05:44.917Z,69.31
2019-03-30T01:07:55.752Z,69.15
2019-03-30T01:10:06.715Z,68.69
2019-03-30T01:12:17.559Z,68.40
2019-03-30T01:14:28.395Z,68.32
2019-03-30T01:16:39.321Z,68.64
2019-03-30T01:18:50.163Z,68.98
2019-03-30T01:21:01.134Z,69.34
2019-03-30T01:23:11.986Z,69.28
2019-03-30T01:25:22.827Z,69.34
2019-03-30T01:27:33.682Z,69.52
2019-03-30T01:29:44.629Z,70.05
2019-03-30T01:31:55.607Z,70.28
2019-03-30T01:34:06.440Z,70.27
2019-03-30T01:36:17.289Z,70.35
2019-03-30T01:38:28.166Z,70.87
2019-03-30T01:40:39.006Z,71.54
2019-03-30T01:42:49.860Z,71.48
2019-03-30T01:45:00.815Z,70.86
2019-03-30T01:47:11.669Z,71.14
2019-03-30T01:49:22.506Z,71.23
2019-03-30T01:51:33.342Z,71.13
2019-03-30T01:53:44.213Z,71.31
2019-03-30T01:55:55.042Z,71.45
2019-03-30T01:58:05.892Z,71.42
2019-03-30T02:00:16.929Z,72.02
2019-03-30T02:02:27.801Z,71.88
2019-03-30T02:04:38.668Z,72.17
2019-03-30T02:06:49.534Z,72.20
2019-03-30T02:09:00.389Z,72.13
2019-03-30T02:11:11.217Z,72.65
2019-03-30T02:13:22.094Z,72.53
2019-03-30T02:15:32.950Z,72.70
2019-03-30T02:17:43.828Z,72.62
2019-03-30T02:19:54.685Z,72.95
2019-03-30T02:22:05.521Z,72.72
2019-03-30T02:24:16.375Z,72.71
2019-03-30T02:26:27.416Z,73.05
2019-03-30T02:28:38.273Z,73.35
2019-03-30T02:30:49.124Z,73.81
2019-03-30T02:33:00.198Z,73.97
2019-03-30T02:35:11.110Z,73.86
2019-03-30T02:37:22.058Z,74.11
2019-03-30T02:39:32.898Z,73.94
2019-03-30T02:41:43.883Z,73.82
2019-03-30T02:43:54.742Z,73.73
2019-03-30T02:46:05.776Z,73.31
2019-03-30T02:48:16.621Z,73.36
2019-03-30T02:50:27.486Z,73.70
2019-03-30T02:52:38.322Z,74.62
2019-03-30T02:54:49.180Z,74.11
2019-03-30T02:57:00.019Z,73.54
2019-03-30T02:59:10.909Z,73.43
2019-03-30T03:01:21.767Z,73.38
2019-03-30T03:03:32.609Z,73.61
2019-03-30T03:05:43.572Z,73.45
2019-03-30T03:07:54.406Z,73.37
2019-03-30T03:10:07.663Z,72.97
2019-03-30T03:12:18.512Z,72.58
2019-03-30T03:14:29.464Z,72.72
2019-03-30T03:16:40.337Z,73.15
2019-03-30T03:18:51.161Z,73.29
2019-03-30T03:21:07.996Z,73.46
2019-03-30T03:23:14.914Z,73.46
2019-03-30T03:25:25.786Z,73.30
2019-03-30T03:27:36.725Z,73.45
2019-03-30T03:29:47.569Z,73.41
2019-03-30T03:31:58.422Z,73.26
2019-03-30T03:34:09.503Z,73.16
2019-03-30T03:36:20.354Z,73.12
2019-03-30T03:38:31.197Z,73.21
2019-03-30T03:40:42.051Z,73.44
2019-03-30T03:42:52.889Z,73.66
2019-03-30T03:45:06.140Z,74.41
2019-03-30T03:47:17.006Z,74.23
2019-03-30T03:49:27.846Z,74.44
2019-03-30T03:51:39.198Z,74.76
2019-03-30T03:53:50.241Z,74.62
2019-03-30T03:56:03.053Z,74.55
2019-03-30T03:58:14.277Z,74.94
2019-03-30T04:00:25.723Z,74.92
2019-03-30T04:02:36.845Z,75.14
2019-03-30T04:04:48.590Z,74.80
2019-03-30T04:07:00.072Z,75.25
2019-03-30T04:09:12.115Z,75.29
2019-03-30T04:11:23.092Z,75.66
2019-03-30T04:13:33.904Z,75.08
2019-03-30T04:15:44.867Z,74.98
2019-03-30T04:17:55.712Z,74.84
2019-03-30T04:20:06.656Z,74.76
2019-03-30T04:22:17.510Z,74.60
2019-03-30T04:24:28.346Z,74.72
2019-03-30T04:26:39.332Z,74.34
2019-03-30T04:28:50.409Z,74.45
2019-03-30T04:31:01.205Z,74.37
2019-03-30T04:33:12.065Z,74.26
2019-03-30T04:35:22.913Z,74.29
2019-03-30T04:37:33.781Z,74.43
2019-03-30T04:39:44.622Z,74.51
2019-03-30T04:41:55.478Z,74.55
2019-03-30T04:44:06.324Z,74.42
2019-03-30T04:46:17.168Z,74.06
2019-03-30T04:48:29.647Z,74.13
2019-03-30T04:50:40.710Z,74.89
2019-03-30T04:52:51.561Z,74.67
2019-03-30T04:55:04.508Z,74.88
2019-03-30T04:57:15.492Z,74.54
2019-03-30T04:59:26.368Z,74.66
2019-03-30T05:01:37.221Z,74.53
2019-03-30T05:03:48.080Z,74.96
2019-03-30T05:05:59.008Z,75.22
2019-03-30T05:08:09.970Z,75.50
2019-03-30T05:10:20.815Z,75.50
2019-03-30T05:12:31.637Z,75.53
2019-03-30T05:14:42.513Z,75.76
2019-03-30T05:16:53.383Z,75.87
2019-03-30T05:19:06.138Z,76.07
2019-03-30T05:21:17.143Z,75.81
2019-03-30T05:23:27.973Z,75.47
2019-03-30T05:25:38.846Z,75.60
2019-03-30T05:27:49.675Z,75.63
2019-03-30T05:30:00.602Z,75.62
2019-03-30T05:32:11.446Z,75.41
2019-03-30T05:34:22.297Z,74.75
2019-03-30T05:36:33.158Z,74.05
2019-03-30T05:38:44.017Z,73.56
2019-03-30T05:40:54.866Z,73.11
2019-03-30T05:43:05.778Z,72.42
2019-03-30T05:45:16.671Z,71.21
2019-03-30T05:47:27.511Z,69.71
2019-03-30T05:49:38.369Z,68.58
2019-03-30T05:51:49.254Z,68.03
2019-03-30T05:54:00.224Z,67.67
2019-03-30T05:56:11.181Z,67.30
2019-03-30T05:58:22.020Z,65.78
2019-03-30T06:00:32.995Z,64.84
2019-03-30T06:02:43.860Z,63.30
2019-03-30T06:04:54.947Z,62.87
2019-03-30T06:07:05.774Z,62.34
2019-03-30T06:09:16.646Z,61.54
2019-03-30T06:11:27.490Z,60.58
2019-03-30T06:13:38.331Z,60.33
2019-03-30T06:15:49.200Z,58.78
2019-03-30T06:18:00.052Z,58.41
2019-03-30T06:20:11.104Z,56.64
2019-03-30T06:22:21.953Z,56.00
2019-03-30T06:24:32.912Z,55.50
2019-03-30T06:26:43.760Z,54.36
2019-03-30T06:28:54.605Z,52.77
2019-03-30T06:31:05.578Z,51.92
2019-03-30T06:33:16.502Z,50.99
2019-03-30T06:35:27.374Z,50.19
2019-03-30T06:37:38.238Z,49.13
2019-03-30T06:39:49.076Z,48.52
2019-03-30T06:42:00.054Z,48.31
2019-03-30T06:44:11.005Z,48.04
2019-03-30T06:46:23.803Z,47.37
2019-03-30T06:48:36.251Z,46.97
2019-03-30T06:50:47.304Z,46.58
2019-03-30T06:52:58.890Z,46.22
2019-03-30T06:55:10.105Z,45.27
2019-03-30T06:57:20.954Z,45.62
2019-03-30T06:59:31.800Z,44.87
2019-03-30T07:01:42.911Z,44.85
2019-03-30T07:03:53.961Z,45.95
2019-03-30T07:06:05.339Z,45.46
2019-03-30T07:08:16.277Z,44.87
2019-03-30T07:10:27.231Z,44.75
2019-03-30T07:12:38.884Z,44.23
2019-03-30T07:14:52.038Z,44.09
2019-03-30T07:17:03.103Z,43.43
2019-03-30T07:19:13.963Z,43.54
2019-03-30T07:21:24.798Z,41.82
2019-03-30T07:23:35.659Z,42.09
2019-03-30T07:25:46.526Z,42.20
2019-03-30T07:27:57.530Z,41.64
2019-03-30T07:30:09.186Z,42.21
2019-03-30T07:32:20.213Z,41.47
2019-03-30T07:34:31.080Z,41.90
2019-03-30T07:36:42.032Z,40.68
2019-03-30T07:38:52.886Z,39.97
2019-03-30T07:41:03.923Z,40.53
2019-03-30T07:43:14.917Z,41.85
2019-03-30T07:45:25.771Z,40.63
2019-03-30T07:47:36.582Z,40.42
2019-03-30T07:49:47.477Z,40.13
2019-03-30T07:51:58.325Z,39.63
2019-03-30T07:54:09.198Z,39.92
2019-03-30T07:56:20.140Z,40.20
2019-03-30T07:58:31.005Z,40.00
2019-03-30T08:00:41.958Z,39.39
2019-03-30T08:02:52.848Z,39.42
2019-03-30T08:05:05.499Z,40.16
2019-03-30T08:07:16.378Z,39.43
2019-03-30T08:09:27.397Z,39.69
2019-03-30T08:11:38.376Z,39.00
2019-03-30T08:13:49.244Z,39.68
2019-03-30T08:16:00.318Z,39.33
2019-03-30T08:18:11.150Z,37.28
2019-03-30T08:20:22.026Z,38.14
2019-03-30T08:22:32.975Z,37.02
2019-03-30T08:24:43.849Z,39.30
2019-03-30T08:26:54.816Z,38.20
2019-03-30T08:29:05.661Z,37.43
2019-03-30T08:31:16.540Z,36.71
2019-03-30T08:33:29.353Z,37.56
2019-03-30T08:35:40.211Z,36.72
2019-03-30T08:37:52.972Z,37.61
2019-03-30T08:40:04.276Z,37.20
2019-03-30T08:42:15.220Z,36.80
2019-03-30T08:44:26.076Z,37.66
2019-03-30T08:46:36.968Z,37.16
2019-03-30T08:48:47.810Z,36.33
2019-03-30T08:50:58.753Z,37.02
2019-03-30T08:53:09.628Z,35.76
2019-03-30T08:55:20.558Z,34.91
2019-03-30T08:57:31.410Z,36.37
2019-03-30T08:59:42.251Z,37.27
2019-03-30T09:01:53.246Z,36.62
2019-03-30T09:04:04.201Z,35.25
2019-03-30T09:06:15.195Z,36.08
2019-03-30T09:08:26.106Z,35.05
2019-03-30T09:10:37.069Z,34.80
2019-03-30T09:12:47.902Z,35.74
2019-03-30T09:14:58.752Z,35.04
2019-03-30T09:17:09.825Z,36.01
2019-03-30T09:19:20.670Z,35.34
2019-03-30T09:21:31.645Z,34.13
2019-03-30T09:23:42.490Z,34.99
2019-03-30T09:25:53.354Z,35.33
2019-03-30T09:28:04.218Z,34.12
2019-03-30T09:30:15.457Z,33.40
2019-03-30T09:32:26.814Z,34.32
2019-03-30T09:34:37.658Z,34.37
2019-03-30T09:36:48.858Z,35.00
2019-03-30T09:38:59.988Z,36.47
2019-03-30T09:41:10.947Z,34.76
2019-03-30T09:43:21.833Z,34.27
2019-03-30T09:45:32.678Z,34.52
2019-03-30T09:47:43.665Z,33.63
2019-03-30T09:49:54.525Z,32.80
2019-03-30T09:52:05.489Z,33.68
2019-03-30T09:54:23.479Z,35.10
2019-03-30T09:56:29.301Z,34.78
2019-03-30T09:58:40.301Z,34.32
2019-03-30T10:00:51.175Z,34.27
2019-03-30T10:03:05.778Z,34.64
2019-03-30T10:05:15.007Z,34.64
2019-03-30T10:07:25.908Z,33.50
2019-03-30T10:09:37.593Z,33.60
2019-03-30T10:11:48.423Z,33.27
2019-03-30T10:13:59.309Z,34.22
2019-03-30T10:16:10.472Z,32.45
2019-03-30T10:18:21.354Z,33.53
2019-03-30T10:20:32.216Z,32.52
2019-03-30T10:22:43.197Z,32.56
2019-03-30T10:24:54.167Z,31.70
2019-03-30T10:27:05.011Z,31.92
2019-03-30T10:29:15.994Z,33.31
2019-03-30T10:31:26.856Z,33.78
2019-03-30T10:33:37.721Z,32.61
2019-03-30T10:35:48.576Z,30.96
2019-03-30T10:37:59.528Z,30.30
2019-03-30T10:40:10.610Z,30.92
2019-03-30T10:42:23.484Z,31.21
2019-03-30T10:44:34.357Z,30.84
2019-03-30T10:46:45.213Z,30.40
2019-03-30T10:48:56.085Z,30.41
2019-03-30T10:51:06.918Z,29.65
2019-03-30T10:53:17.815Z,30.61
2019-03-30T10:55:28.688Z,29.51
2019-03-30T10:57:39.525Z,30.68
2019-03-30T10:59:50.492Z,30.23
2019-03-30T11:02:01.563Z,32.45
2019-03-30T11:04:12.427Z,30.87
2019-03-30T11:06:23.269Z,29.68
2019-03-30T11:08:34.219Z,32.10
2019-03-30T11:10:45.096Z,29.08
2019-03-30T11:12:55.990Z,30.87
2019-03-30T11:15:07.166Z,30.07
2019-03-30T11:17:19.463Z,30.07
2019-03-30T11:19:30.481Z,31.28
2019-03-30T11:21:42.206Z,29.27
2019-03-30T11:23:53.118Z,30.30
2019-03-30T11:26:04.472Z,29.57
2019-03-30T11:28:15.331Z,30.26
2019-03-30T11:30:26.227Z,28.75
2019-03-30T11:32:37.166Z,29.46
2019-03-30T11:34:48.029Z,29.89
2019-03-30T11:36:58.891Z,30.61
2019-03-30T11:39:09.831Z,31.51
2019-03-30T11:41:20.854Z,31.53
2019-03-30T11:43:31.779Z,29.08
2019-03-30T11:45:42.658Z,28.72
2019-03-30T11:47:53.485Z,29.50
2019-03-30T11:50:05.420Z,30.01
2019-03-30T11:52:16.288Z,29.67
2019-03-30T11:54:27.145Z,29.48
2019-03-30T11:56:38.040Z,29.17
2019-03-30T11:58:48.868Z,28.62
2019-03-30T12:01:00.048Z,28.98
2019-03-30T12:03:10.904Z,28.26
2019-03-30T12:05:21.756Z,28.49
2019-03-30T12:07:32.607Z,28.37
2019-03-30T12:09:43.478Z,28.36
2019-03-30T12:11:54.346Z,28.22
2019-03-30T12:14:05.208Z,27.86
2019-03-30T12:16:16.112Z,26.75
2019-03-30T12:18:27.058Z,27.21
2019-03-30T12:20:37.907Z,26.49
2019-03-30T12:22:48.897Z,27.22
2019-03-30T12:24:59.776Z,26.83
2019-03-30T12:27:10.729Z,25.43
2019-03-30T12:29:21.625Z,24.16
2019-03-30T12:31:32.461Z,26.68
2019-03-30T12:33:43.348Z,26.96
2019-03-30T12:35:54.188Z,24.16
2019-03-30T12:38:07.052Z,23.86
2019-03-30T12:40:17.998Z,25.70
2019-03-30T12:42:28.871Z,23.98
2019-03-30T12:44:39.738Z,25.37
2019-03-30T12:46:50.582Z,23.24
2019-03-30T12:49:01.496Z,23.54
2019-03-30T12:51:12.343Z,24.13
2019-03-30T12:53:23.221Z,24.64
2019-03-30T12:55:34.165Z,24.84
2019-03-30T12:57:45.174Z,25.84
2019-03-30T12:59:59.160Z,25.98
2019-03-30T13:02:08.886Z,25.16
2019-03-30T13:04:19.772Z,27.88
2019-03-30T13:06:30.641Z,26.77
2019-03-30T13:08:41.488Z,26.60
2019-03-30T13:10:52.335Z,26.71
2019-03-30T13:13:03.274Z,26.66
2019-03-30T13:15:14.344Z,26.30
2019-03-30T13:17:25.287Z,26.67
2019-03-30T13:19:36.266Z,27.85
2019-03-30T13:21:52.751Z,25.98
2019-03-30T13:24:00.465Z,26.85
2019-03-30T13:26:11.404Z,26.96
2019-03-30T13:28:22.262Z,27.01
2019-03-30T13:30:33.227Z,26.86
2019-03-30T13:32:44.086Z,26.23
2019-03-30T13:34:54.975Z,25.90
2019-03-30T13:37:14.095Z,26.92
2019-03-30T13:39:24.942Z,27.62
2019-03-30T13:41:36.012Z,26.86
2019-03-30T13:43:46.853Z,27.43
2019-03-30T13:45:57.923Z,26.31
2019-03-30T13:48:10.660Z,26.38
2019-03-30T13:50:21.539Z,25.64
2019-03-30T13:52:32.459Z,25.80
2019-03-30T13:54:43.323Z,26.78
2019-03-30T13:56:54.165Z,25.91
2019-03-30T13:59:05.035Z,26.79
2019-03-30T14:01:16.016Z,26.52
2019-03-30T14:03:26.892Z,26.62
2019-03-30T14:05:37.754Z,26.66
2019-03-30T14:07:48.693Z,25.71
2019-03-30T14:09:59.796Z,27.11
2019-03-30T14:12:10.753Z,27.30
2019-03-30T14:14:21.602Z,27.80
2019-03-30T14:16:32.503Z,26.74
2019-03-30T14:18:43.339Z,26.82
2019-03-30T14:20:54.211Z,26.97
2019-03-30T14:23:05.071Z,26.62
2019-03-30T14:25:15.948Z,26.35
2019-03-30T14:27:26.829Z,26.54
2019-03-30T14:29:37.681Z,26.61
2019-03-30T14:31:48.575Z,26.31
2019-03-30T14:33:59.473Z,26.24
2019-03-30T14:36:10.332Z,26.01
2019-03-30T14:38:21.185Z,26.18
2019-03-30T14:40:32.038Z,26.60
2019-03-30T14:42:43.015Z,25.86
2019-03-30T14:44:53.980Z,26.50
2019-03-30T14:47:04.833Z,26.50
2019-03-30T14:49:15.769Z,26.21
2019-03-30T14:51:26.624Z,25.72
2019-03-30T14:53:37.489Z,27.07
2019-03-30T14:55:48.415Z,26.82
2019-03-30T14:57:59.308Z,27.24
2019-03-30T15:00:10.633Z,27.83
2019-03-30T15:02:21.616Z,27.29
2019-03-30T15:04:32.484Z,27.73
2019-03-30T15:06:43.344Z,27.67
2019-03-30T15:08:54.187Z,27.33
2019-03-30T15:11:05.057Z,27.72
2019-03-30T15:13:15.927Z,27.57
2019-03-30T15:15:26.768Z,27.36
2019-03-30T15:17:40.649Z,27.80
2019-03-30T15:19:50.585Z,28.40
2019-03-30T15:22:01.436Z,28.44
2019-03-30T15:24:12.289Z,28.98
2019-03-30T15:26:23.237Z,28.63
2019-03-30T15:28:34.121Z,28.75
2019-03-30T15:30:44.969Z,28.06
2019-03-30T15:32:55.940Z,28.09
2019-03-30T15:35:06.904Z,27.68
2019-03-30T15:37:17.743Z,29.26
2019-03-30T15:39:28.617Z,29.24
2019-03-30T15:41:39.564Z,28.67
2019-03-30T15:43:52.176Z,29.54
2019-03-30T15:46:03.301Z,28.94
2019-03-30T15:48:14.168Z,28.77
2019-03-30T15:50:24.999Z,29.64
2019-03-30T15:52:35.871Z,27.80
2019-03-30T15:54:46.849Z,27.87
2019-03-30T15:56:57.957Z,27.10
2019-03-30T15:59:08.897Z,27.94
2019-03-30T16:01:20.007Z,27.08
2019-03-30T16:03:30.972Z,27.28
2019-03-30T16:05:42.222Z,27.98
2019-03-30T16:07:53.181Z,28.04
2019-03-30T16:10:05.159Z,28.03
2019-03-30T16:12:16.116Z,27.85
2019-03-30T16:14:26.955Z,27.72
2019-03-30T16:16:37.933Z,28.57
2019-03-30T16:18:48.799Z,28.40
2019-03-30T16:20:59.757Z,28.64
2019-03-30T16:23:12.721Z,28.52
2019-03-30T16:25:23.696Z,28.35
2019-03-30T16:27:34.547Z,28.58
2019-03-30T16:29:45.495Z,28.57
2019-03-30T16:31:56.421Z,29.08
2019-03-30T16:34:07.209Z,30.12
2019-03-30T16:36:18.215Z,30.16
2019-03-30T16:38:29.232Z,30.15
2019-03-30T16:40:40.228Z,29.98
2019-03-30T16:42:51.054Z,30.10
2019-03-30T16:45:03.383Z,29.91
2019-03-30T16:47:14.366Z,30.06
2019-03-30T16:49:25.285Z,30.36
2019-03-30T16:51:36.157Z,30.33
2019-03-30T16:53:47.487Z,30.35
2019-03-30T16:55:58.498Z,30.57
2019-03-30T16:58:09.366Z,30.61
2019-03-30T17:00:20.315Z,30.52
2019-03-30T17:02:31.205Z,30.58
2019-03-30T17:04:42.047Z,30.50
2019-03-30T17:06:52.918Z,32.28
2019-03-30T17:09:04.764Z,31.68
2019-03-30T17:11:15.740Z,31.03
2019-03-30T17:13:26.621Z,30.91
2019-03-30T17:15:37.484Z,30.64
2019-03-30T17:17:48.371Z,31.00
2019-03-30T17:19:59.214Z,30.95
2019-03-30T17:22:10.081Z,31.39
2019-03-30T17:24:21.044Z,31.42
2019-03-30T17:26:31.892Z,31.42
2019-03-30T17:28:42.763Z,31.36
2019-03-30T17:30:53.633Z,31.39
2019-03-30T17:33:04.690Z,31.36
2019-03-30T17:35:15.651Z,31.29
2019-03-30T17:37:26.652Z,33.69
2019-03-30T17:39:37.505Z,35.84
2019-03-30T17:41:48.403Z,36.28
2019-03-30T17:43:59.270Z,36.84
2019-03-30T17:46:10.113Z,37.37
2019-03-30T17:48:22.975Z,37.69
2019-03-30T17:50:33.930Z,37.93
2019-03-30T17:52:44.968Z,38.10
2019-03-30T17:54:55.789Z,38.36
2019-03-30T17:57:06.725Z,38.48
2019-03-30T17:59:19.508Z,38.88
2019-03-30T18:01:30.542Z,39.02
2019-03-30T18:03:41.468Z,39.09
2019-03-30T18:05:52.303Z,39.42
2019-03-30T18:08:03.277Z,39.87
2019-03-30T18:10:14.433Z,40.16
2019-03-30T18:12:25.380Z,40.25
2019-03-30T18:14:36.265Z,40.47
2019-03-30T18:16:47.112Z,40.48
2019-03-30T18:18:57.998Z,40.48
2019-03-30T18:21:08.865Z,41.14
2019-03-30T18:23:19.710Z,41.96
2019-03-30T18:25:30.574Z,41.93
2019-03-30T18:27:41.411Z,41.81
2019-03-30T18:29:52.265Z,42.27
2019-03-30T18:32:03.335Z,42.47
2019-03-30T18:34:14.531Z,42.98
2019-03-30T18:36:25.469Z,43.12
2019-03-30T18:38:37.563Z,43.27
2019-03-30T18:40:48.502Z,43.20
2019-03-30T18:43:01.151Z,43.50
2019-03-30T18:45:15.845Z,44.55
2019-03-30T18:47:26.887Z,44.92
2019-03-30T18:49:37.771Z,44.93
2019-03-30T18:51:48.772Z,44.68
2019-03-30T18:53:59.870Z,45.02
2019-03-30T18:56:10.702Z,44.99
2019-03-30T18:58:21.674Z,45.03
2019-03-30T19:00:32.644Z,46.15
2019-03-30T19:02:45.401Z,46.40
2019-03-30T19:04:56.280Z,46.80
2019-03-30T19:07:07.151Z,47.38
2019-03-30T19:09:18.008Z,48.58
2019-03-30T19:11:28.926Z,49.03
2019-03-30T19:13:39.757Z,48.53
2019-03-30T19:15:50.999Z,48.68
2019-03-30T19:18:01.865Z,49.13
2019-03-30T19:20:12.842Z,49.29
2019-03-30T19:22:23.822Z,49.16
2019-03-30T19:24:34.673Z,49.35
2019-03-30T19:26:45.567Z,49.90
2019-03-30T19:28:56.971Z,49.67
2019-03-30T19:31:07.900Z,49.24
2019-03-30T19:33:18.760Z,49.59
2019-03-30T19:35:29.653Z,49.61
2019-03-30T19:37:40.509Z,50.12
2019-03-30T19:39:51.377Z,50.32
2019-03-30T19:42:02.829Z,50.50
2019-03-30T19:44:15.564Z,50.90
2019-03-30T19:46:26.916Z,50.86
2019-03-30T19:48:37.797Z,50.52
2019-03-30T19:50:48.664Z,50.84
2019-03-30T19:52:59.542Z,50.84
2019-03-30T19:55:10.514Z,51.65
2019-03-30T19:57:21.411Z,52.24
2019-03-30T19:59:32.246Z,52.29
2019-03-30T20:01:43.139Z,52.52
2019-03-30T20:03:54.183Z,52.68
2019-03-30T20:06:04.998Z,53.20
2019-03-30T20:08:16.078Z,53.44
2019-03-30T20:10:27.014Z,53.67
2019-03-30T20:12:37.888Z,53.40
2019-03-30T20:14:48.855Z,53.71
2019-03-30T20:16:59.751Z,53.88
2019-03-30T20:19:12.755Z,53.82
2019-03-30T20:21:23.484Z,53.62
2019-03-30T20:23:34.414Z,53.49
2019-03-30T20:25:45.253Z,53.39
2019-03-30T20:27:56.141Z,53.72
2019-03-30T20:30:08.384Z,53.98
2019-03-30T20:32:19.250Z,53.62
2019-03-30T20:34:30.127Z,53.68
2019-03-30T20:36:41.100Z,53.51
2019-03-30T20:38:51.975Z,53.78
2019-03-30T20:41:02.912Z,53.80
2019-03-30T20:43:13.879Z,53.93
2019-03-30T20:45:24.716Z,53.82
2019-03-30T20:47:35.712Z,53.70
2019-03-30T20:49:46.589Z,53.85
2019-03-30T20:51:57.482Z,53.75
2019-03-30T20:54:08.456Z,53.71
2019-03-30T20:56:19.306Z,54.13
2019-03-30T20:58:30.364Z,54.10
2019-03-30T21:00:41.314Z,54.10
2019-03-30T21:02:52.185Z,54.24
2019-03-30T21:05:04.753Z,54.48
2019-03-30T21:07:15.628Z,54.83
2019-03-30T21:09:26.593Z,54.85
2019-03-30T21:11:37.428Z,55.15
2019-03-30T21:13:48.422Z,55.56
2019-03-30T21:15:59.321Z,55.45
2019-03-30T21:18:10.249Z,56.00
2019-03-30T21:20:23.126Z,56.05
2019-03-30T21:22:34.225Z,56.14
2019-03-30T21:24:45.211Z,55.85
2019-03-30T21:26:56.061Z,55.70
2019-03-30T21:29:07.026Z,55.82
2019-03-30T21:31:17.882Z,55.89
2019-03-30T21:33:28.735Z,55.98
2019-03-30T21:35:39.621Z,56.27
2019-03-30T21:37:50.596Z,56.03
2019-03-30T21:40:02.280Z,55.97
2019-03-30T21:42:13.150Z,56.33
2019-03-30T21:44:23.996Z,56.57
2019-03-30T21:46:35.080Z,57.02
2019-03-30T21:48:46.030Z,57.08
2019-03-30T21:50:57.031Z,57.28
2019-03-30T21:53:07.872Z,57.31
2019-03-30T21:55:18.725Z,57.15
2019-03-30T21:57:29.605Z,57.35
2019-03-30T21:59:40.566Z,57.99
2019-03-30T22:01:53.336Z,57.93
2019-03-30T22:04:04.310Z,57.79
2019-03-30T22:06:15.396Z,57.79
2019-03-30T22:08:26.465Z,58.06
2019-03-30T22:10:37.324Z,58.27
2019-03-30T22:12:48.306Z,58.08
2019-03-30T22:14:59.162Z,58.36
2019-03-30T22:17:10.125Z,58.65
2019-03-30T22:19:21.083Z,58.49
2019-03-30T22:21:31.957Z,58.39
2019-03-30T22:23:42.913Z,58.56
2019-03-30T22:25:53.748Z,58.24
2019-03-30T22:28:04.631Z,58.08
2019-03-30T22:30:24.575Z,57.89
2019-03-30T22:32:28.514Z,58.44
2019-03-30T22:34:39.373Z,58.54
2019-03-30T22:36:50.263Z,58.73
2019-03-30T22:39:01.127Z,59.10
2019-03-30T22:41:11.962Z,59.24
2019-03-30T22:43:23.097Z,59.32
2019-03-30T22:45:34.042Z,59.58
2019-03-30T22:47:44.918Z,60.00
2019-03-30T22:49:55.760Z,60.46
2019-03-30T22:52:06.623Z,60.51
2019-03-30T22:54:17.582Z,60.30
2019-03-30T22:56:28.451Z,60.47
2019-03-30T22:58:39.448Z,60.11
2019-03-30T23:00:59.013Z,59.97
2019-03-30T23:03:10.956Z,60.11
2019-03-30T23:05:21.941Z,60.09
2019-03-30T23:07:34.742Z,60.08
2019-03-30T23:09:45.619Z,60.52
2019-03-30T23:11:56.453Z,60.71
2019-03-30T23:14:07.423Z,61.22
2019-03-30T23:16:18.361Z,60.96
2019-03-30T23:18:29.308Z,60.99
2019-03-30T23:20:40.150Z,60.93
2019-03-30T23:22:51.003Z,61.09
2019-03-30T23:25:03.260Z,61.39
2019-03-30T23:27:14.114Z,61.52
2019-03-30T23:29:24.973Z,61.26
2019-03-30T23:31:35.805Z,60.94
2019-03-30T23:33:46.667Z,61.46
2019-03-30T23:35:57.631Z,61.83
2019-03-30T23:38:08.708Z,62.19
2019-03-30T23:40:19.665Z,62.92
2019-03-30T23:42:30.503Z,63.14
2019-03-30T23:44:41.357Z,63.26
2019-03-30T23:46:52.299Z,63.15
2019-03-30T23:49:03.265Z,63.06
2019-03-30T23:51:14.126Z,62.82
2019-03-30T23:53:25.010Z,62.81
2019-03-30T23:55:35.886Z,62.88
2019-03-30T23:57:46.739Z,62.59
2019-03-30T23:59:57.603Z,62.67
